Time;durP1;ratioP1;P1;durP2;ratioP2;P2;SDS_P1;SDS_P2;PMS_P1;PMS_P2;Temp;Humidity;BMP_temperature;BMP_pressure;BME280_temperature;BME280_humidity;BME280_pressure;Samples;Min_cycle;Max_cycle;Signal;HPM_P1;HPM_P2
2022/11/03 00:01:15;;;;;;;3.03;2.22;;;;;;;;;;5033576;28;20745;-81
2022/11/03 00:03:42;;;;;;;4.60;2.30;;;;;;;;;;5036773;28;20294;-82
2022/11/03 00:06:10;;;;;;;2.83;2.25;;;;;;;;;;5034911;28;20256;-82
2022/11/03 00:08:39;;;;;;;3.63;2.80;;;;;;;;;;5034705;28;20852;-82
2022/11/03 00:11:10;;;;;;;4.30;2.83;;;;;;;;;;5034495;28;20678;-80
2022/11/03 00:13:41;;;;;;;4.05;2.70;;;;;;;;;;5034819;28;20209;-82
2022/11/03 00:16:10;;;;;;;3.85;2.78;;;;;;;;;;5034821;28;20222;-81
2022/11/03 00:18:38;;;;;;;3.55;2.63;;;;;;;;;;5034376;28;20312;-82
2022/11/03 00:21:08;;;;;;;2.83;2.40;;;;;;;;;;5034471;28;20198;-81
2022/11/03 00:23:38;;;;;;;3.85;2.40;;;;;;;;;;5034189;28;20212;-82
2022/11/03 00:26:10;;;;;;;2.75;2.20;;;;;;;;;;5033961;28;20286;-81
2022/11/03 00:28:38;;;;;;;2.33;2.13;;;;;;;;;;5033851;28;20683;-81
2022/11/03 00:31:11;;;;;;;3.65;2.78;;;;;;;;;;5034632;28;20208;-80
2022/11/03 00:33:41;;;;;;;3.95;2.30;;;;;;;;;;5033362;28;20285;-81
2022/11/03 00:36:11;;;;;;;3.25;2.75;;;;;;;;;;5032745;28;20228;-80
2022/11/03 00:38:39;;;;;;;4.40;2.30;;;;;;;;;;5051594;28;20326;-82
2022/11/03 00:41:09;;;;;;;6.30;2.33;;;;;;;;;;5054893;28;20293;-80
2022/11/03 00:43:36;;;;;;;2.53;1.92;;;;;;;;;;5057057;28;20241;-81
2022/11/03 00:46:05;;;;;;;3.30;1.98;;;;;;;;;;5056561;28;20220;-80
2022/11/03 00:48:34;;;;;;;2.88;2.22;;;;;;;;;;5056967;28;20201;-81
2022/11/03 00:51:04;;;;;;;3.47;2.38;;;;;;;;;;5056733;28;20206;-80
2022/11/03 00:53:32;;;;;;;4.57;2.70;;;;;;;;;;5038112;28;20285;-81
2022/11/03 00:56:00;;;;;;;2.50;2.10;;;;;;;;;;5016441;28;20587;-80
2022/11/03 00:58:29;;;;;;;3.75;2.20;;;;;;;;;;5016352;28;20233;-80
2022/11/03 01:01:02;;;;;;;3.28;2.35;;;;;;;;;;5035487;28;20183;-80
2022/11/03 01:03:29;;;;;;;3.53;2.10;;;;;;;;;;5040951;28;20198;-81
2022/11/03 01:08:42;;;;;;;3.95;2.13;;;;;;;;;;5040703;28;20190;-80
2022/11/03 01:13:59;;;;;;;2.35;1.70;;;;;;;;;;5039304;28;20225;-79
2022/11/03 01:16:27;;;;;;;2.53;1.65;;;;;;;;;;5065159;22;20233;-81
2022/11/03 01:18:55;;;;;;;2.33;1.60;;;;;;;;;;5066662;28;20589;-81
2022/11/03 01:21:23;;;;;;;1.67;1.58;;;;;;;;;;5076686;28;20608;-81
2022/11/03 01:23:51;;;;;;;2.50;2.20;;;;;;;;;;5076650;28;20339;-81
2022/11/03 01:26:19;;;;;;;3.03;1.90;;;;;;;;;;5076529;28;20225;-82
2022/11/03 01:28:48;;;;;;;1.95;1.45;;;;;;;;;;5056450;28;20673;-82
2022/11/03 01:31:20;;;;;;;1.33;1.20;;;;;;;;;;5055954;28;20304;-81
2022/11/03 01:33:49;;;;;;;1.60;1.50;;;;;;;;;;5056176;28;20293;-81
2022/11/03 01:36:17;;;;;;;3.88;1.85;;;;;;;;;;5056776;28;20355;-82
2022/11/03 01:38:45;;;;;;;1.42;1.30;;;;;;;;;;5056083;28;20226;-82
2022/11/03 01:41:16;;;;;;;2.03;1.15;;;;;;;;;;5055972;28;20204;-82
2022/11/03 01:43:44;;;;;;;1.67;1.48;;;;;;;;;;5056097;28;20205;-81
2022/11/03 01:46:20;;;;;;;2.85;1.63;;;;;;;;;;5055835;28;20228;-81
2022/11/03 01:48:51;;;;;;;2.45;1.83;;;;;;;;;;5056897;28;20297;-81
2022/11/03 01:51:22;;;;;;;2.92;1.58;;;;;;;;;;5054649;28;20582;-79
2022/11/03 01:53:52;;;;;;;2.08;1.17;;;;;;;;;;5055188;28;20707;-79
2022/11/03 01:56:20;;;;;;;2.53;1.33;;;;;;;;;;5055379;28;20316;-79
2022/11/03 01:58:51;;;;;;;3.08;1.45;;;;;;;;;;5055542;28;20232;-79
2022/11/03 02:01:20;;;;;;;1.60;1.45;;;;;;;;;;5055756;28;20202;-81
2022/11/03 02:03:52;;;;;;;3.00;1.65;;;;;;;;;;5055569;28;20285;-81
2022/11/03 02:06:20;;;;;;;3.40;2.38;;;;;;;;;;5055571;28;20312;-81
2022/11/03 02:08:51;;;;;;;2.75;1.60;;;;;;;;;;5055370;28;20289;-81
2022/11/03 02:14:03;;;;;;;3.08;1.55;;;;;;;;;;5056062;28;20205;-81
2022/11/03 02:16:33;;;;;;;2.15;1.50;;;;;;;;;;5055493;28;20241;-82
2022/11/03 02:19:01;;;;;;;4.03;2.15;;;;;;;;;;5055555;28;20221;-82
2022/11/03 02:21:34;;;;;;;2.85;1.95;;;;;;;;;;5055255;28;20289;-82
2022/11/03 02:24:09;;;;;;;1.83;1.40;;;;;;;;;;5055873;28;20209;-82
2022/11/03 02:26:38;;;;;;;2.78;1.77;;;;;;;;;;5055313;28;20308;-82
2022/11/03 02:29:05;;;;;;;2.17;1.60;;;;;;;;;;5054819;28;20233;-82
2022/11/03 02:31:38;;;;;;;3.60;2.28;;;;;;;;;;5054724;28;20206;-82
2022/11/03 02:34:12;;;;;;;2.28;1.90;;;;;;;;;;5055207;28;20271;-82
2022/11/03 02:36:45;;;;;;;2.13;1.92;;;;;;;;;;5055391;28;20727;-82
2022/11/03 02:39:16;;;;;;;2.80;1.80;;;;;;;;;;5054757;28;20312;-82
2022/11/03 02:41:47;;;;;;;2.78;1.55;;;;;;;;;;5055180;28;20220;-82
2022/11/03 02:44:17;;;;;;;2.80;1.42;;;;;;;;;;5054737;28;20297;-82
2022/11/03 02:46:47;;;;;;;1.73;1.40;;;;;;;;;;5054192;28;20667;-81
2022/11/03 02:49:15;;;;;;;3.50;2.17;;;;;;;;;;5054412;28;20300;-82
2022/11/03 02:51:42;;;;;;;2.35;1.60;;;;;;;;;;5054215;28;20198;-82
2022/11/03 02:54:16;;;;;;;1.80;1.42;;;;;;;;;;5054280;28;20792;-81
2022/11/03 02:56:51;;;;;;;2.75;2.00;;;;;;;;;;5054678;28;20231;-81
2022/11/03 02:59:22;;;;;;;1.75;1.27;;;;;;;;;;5054003;28;20344;-82
2022/11/03 03:01:53;;;;;;;1.73;1.58;;;;;;;;;;5054518;28;20204;-81
2022/11/03 03:04:25;;;;;;;2.55;1.63;;;;;;;;;;5053864;28;20645;-82
2022/11/03 03:06:57;;;;;;;2.83;1.55;;;;;;;;;;5053962;28;20225;-82
2022/11/03 03:09:29;;;;;;;2.15;1.35;;;;;;;;;;5053953;28;20206;-82
2022/11/03 03:12:00;;;;;;;2.28;1.27;;;;;;;;;;5054461;28;20600;-82
2022/11/03 03:14:31;;;;;;;0.98;0.98;;;;;;;;;;5053860;28;20206;-82
2022/11/03 03:17:04;;;;;;;2.25;1.10;;;;;;;;;;5053830;28;20205;-83
2022/11/03 03:19:43;;;;;;;1.75;1.20;;;;;;;;;;5053368;28;20222;-82
2022/11/03 03:22:19;;;;;;;1.70;1.30;;;;;;;;;;5054485;28;20201;-82
2022/11/03 03:24:52;;;;;;;1.77;1.30;;;;;;;;;;5054380;28;20363;-82
2022/11/03 03:27:23;;;;;;;1.40;1.30;;;;;;;;;;5053815;28;20297;-82
2022/11/03 03:29:54;;;;;;;1.80;1.38;;;;;;;;;;5053317;28;20198;-82
2022/11/03 03:32:25;;;;;;;1.35;0.90;;;;;;;;;;5054220;28;20733;-82
2022/11/03 03:34:53;;;;;;;1.65;1.10;;;;;;;;;;5053926;28;20317;-82
2022/11/03 03:37:21;;;;;;;1.23;1.20;;;;;;;;;;5053781;28;20412;-78
2022/11/03 03:39:53;;;;;;;2.13;1.13;;;;;;;;;;5052966;28;20222;-79
2022/11/03 03:42:26;;;;;;;3.22;1.30;;;;;;;;;;5053246;28;20300;-79
2022/11/03 03:44:53;;;;;;;3.78;1.80;;;;;;;;;;5053490;28;20300;-80
2022/11/03 03:47:25;;;;;;;2.55;1.75;;;;;;;;;;5053450;28;20638;-80
2022/11/03 03:49:52;;;;;;;1.58;1.10;;;;;;;;;;5053018;28;20285;-80
2022/11/03 03:52:20;;;;;;;1.50;1.40;;;;;;;;;;5053405;28;20207;-79
2022/11/03 03:54:48;;;;;;;2.28;1.33;;;;;;;;;;5052489;28;20308;-82
2022/11/03 03:57:17;;;;;;;1.25;1.00;;;;;;;;;;5052744;28;20200;-80
2022/11/03 03:59:46;;;;;;;1.73;1.10;;;;;;;;;;5053029;28;20233;-79
2022/11/03 04:02:13;;;;;;;0.90;0.90;;;;;;;;;;5053363;28;20347;-79
2022/11/03 04:04:41;;;;;;;1.35;1.08;;;;;;;;;;5053115;28;20293;-80
2022/11/03 04:09:54;;;;;;;1.70;0.90;;;;;;;;;;5053043;28;20243;-80
2022/11/03 04:23:29;;;;;;;1.00;1.00;;;;;;;;;;5057149;28;20204;-80
2022/11/03 04:25:57;;;;;;;1.38;1.27;;;;;;;;;;5056554;28;20679;-80
2022/11/03 04:28:25;;;;;;;1.50;1.02;;;;;;;;;;5056893;28;20204;-80
2022/11/03 04:30:58;;;;;;;1.08;1.08;;;;;;;;;;5057027;28;20228;-80
2022/11/03 04:33:25;;;;;;;3.80;1.05;;;;;;;;;;5057574;28;20186;-80
2022/11/03 04:35:54;;;;;;;1.38;1.00;;;;;;;;;;5057440;28;20689;-80
2022/11/03 04:38:23;;;;;;;1.65;0.98;;;;;;;;;;5056625;28;20204;-80
2022/11/03 04:40:54;;;;;;;0.77;0.77;;;;;;;;;;5062545;28;20787;-80
2022/11/03 04:43:24;;;;;;;0.90;0.90;;;;;;;;;;5077201;28;20215;-80
2022/11/03 04:45:52;;;;;;;2.22;1.20;;;;;;;;;;5077008;28;20304;-80
2022/11/03 04:48:23;;;;;;;1.17;1.02;;;;;;;;;;5056774;28;20206;-80
2022/11/03 04:50:54;;;;;;;2.40;1.20;;;;;;;;;;5056648;28;20228;-80
2022/11/03 04:53:23;;;;;;;2.42;1.50;;;;;;;;;;5056548;28;20236;-80
2022/11/03 04:55:53;;;;;;;1.70;1.50;;;;;;;;;;5056832;28;20713;-81
2022/11/03 04:58:22;;;;;;;3.97;1.40;;;;;;;;;;5056579;28;20292;-80
2022/11/03 05:00:53;;;;;;;1.65;0.98;;;;;;;;;;5056847;28;20288;-80
2022/11/03 05:03:25;;;;;;;3.42;1.60;;;;;;;;;;5056847;28;20296;-80
2022/11/03 05:05:53;;;;;;;1.83;1.58;;;;;;;;;;5056792;28;20308;-80
2022/11/03 05:08:21;;;;;;;1.67;1.10;;;;;;;;;;5056403;28;21012;-80
2022/11/03 05:10:50;;;;;;;3.20;2.08;;;;;;;;;;5056897;28;20308;-80
2022/11/03 05:13:22;;;;;;;1.52;1.15;;;;;;;;;;5057554;28;20205;-80
2022/11/03 05:15:51;;;;;;;2.05;1.55;;;;;;;;;;5068703;28;20241;-79
2022/11/03 05:18:24;;;;;;;2.15;1.70;;;;;;;;;;5067990;28;20265;-80
2022/11/03 05:20:54;;;;;;;3.25;2.95;;;;;;;;;;5067461;28;20225;-80
2022/11/03 05:23:22;;;;;;;1.95;1.73;;;;;;;;;;5065706;28;20265;-80
2022/11/03 05:25:52;;;;;;;1.63;1.38;;;;;;;;;;5068417;28;20650;-80
2022/11/03 05:28:26;;;;;;;2.35;1.40;;;;;;;;;;5061951;28;20241;-80
2022/11/03 05:30:55;;;;;;;2.53;1.42;;;;;;;;;;5058108;28;20231;-80
2022/11/03 05:33:28;;;;;;;2.10;1.27;;;;;;;;;;5058240;28;20202;-80
2022/11/03 05:35:57;;;;;;;1.95;1.40;;;;;;;;;;5057437;28;20308;-80
2022/11/03 05:38:24;;;;;;;3.58;1.80;;;;;;;;;;5056345;28;20208;-80
2022/11/03 05:40:53;;;;;;;4.50;1.58;;;;;;;;;;5056840;28;20224;-78
2022/11/03 05:43:22;;;;;;;2.17;1.77;;;;;;;;;;5055811;28;20202;-79
2022/11/03 05:45:51;;;;;;;3.50;1.73;;;;;;;;;;5055678;28;20236;-78
2022/11/03 05:48:29;;;;;;;1.92;1.60;;;;;;;;;;5059471;28;20202;-78
2022/11/03 05:50:59;;;;;;;1.73;1.38;;;;;;;;;;5055902;28;20246;-78
2022/11/03 05:53:30;;;;;;;2.03;1.60;;;;;;;;;;5056112;28;20229;-79
2022/11/03 05:56:01;;;;;;;1.20;1.10;;;;;;;;;;5056625;28;20663;-79
2022/11/03 05:58:33;;;;;;;1.77;1.20;;;;;;;;;;5055825;28;20607;-79
2022/11/03 06:01:04;;;;;;;3.42;1.42;;;;;;;;;;5055964;28;20194;-79
2022/11/03 06:03:36;;;;;;;2.72;2.00;;;;;;;;;;5055742;28;20292;-79
2022/11/03 06:06:14;;;;;;;1.40;1.30;;;;;;;;;;5055708;28;20635;-78
2022/11/03 06:08:41;;;;;;;1.30;1.20;;;;;;;;;;5055148;28;20288;-79
2022/11/03 06:11:15;;;;;;;3.72;2.42;;;;;;;;;;5055541;28;20225;-79
2022/11/03 06:13:42;;;;;;;2.03;1.33;;;;;;;;;;5055352;28;20202;-78
2022/11/03 06:16:32;;;;;;;4.47;1.73;;;;;;;;;;5055188;28;20238;-79
2022/11/03 06:19:03;;;;;;;4.63;1.50;;;;;;;;;;5055437;28;20609;-79
2022/11/03 06:21:31;;;;;;;2.22;1.40;;;;;;;;;;5055430;28;20289;-79
2022/11/03 06:24:00;;;;;;;2.13;1.88;;;;;;;;;;5055021;28;20198;-79
2022/11/03 06:26:28;;;;;;;3.83;2.03;;;;;;;;;;5055089;28;20221;-78
2022/11/03 06:28:56;;;;;;;2.67;1.73;;;;;;;;;;5054875;28;20209;-79
2022/11/03 06:31:27;;;;;;;1.58;1.48;;;;;;;;;;5054624;28;20221;-79
2022/11/03 06:33:55;;;;;;;2.92;1.60;;;;;;;;;;5055035;28;20201;-79
2022/11/03 06:36:26;;;;;;;3.97;1.67;;;;;;;;;;5055216;28;20228;-80
2022/11/03 06:38:56;;;;;;;4.18;1.90;;;;;;;;;;5051784;28;20197;-79
2022/11/03 06:41:26;;;;;;;4.25;1.58;;;;;;;;;;5056424;28;20646;-80
2022/11/03 06:43:55;;;;;;;2.03;1.77;;;;;;;;;;5059469;28;20280;-80
2022/11/03 06:46:24;;;;;;;1.55;1.45;;;;;;;;;;5054782;28;20685;-80
2022/11/03 06:48:53;;;;;;;1.25;1.10;;;;;;;;;;5054586;28;20202;-80
2022/11/03 06:51:26;;;;;;;1.67;1.25;;;;;;;;;;5054956;28;20226;-80
2022/11/03 06:53:57;;;;;;;1.00;1.00;;;;;;;;;;5055041;28;20208;-79
2022/11/03 06:56:29;;;;;;;1.30;1.20;;;;;;;;;;5062686;28;20231;-80
2022/11/03 06:58:57;;;;;;;1.52;1.02;;;;;;;;;;5074453;28;20291;-79
2022/11/03 07:01:27;;;;;;;1.05;0.95;;;;;;;;;;5074712;28;20284;-81
2022/11/03 07:04:00;;;;;;;2.40;1.70;;;;;;;;;;5074888;28;20208;-80
2022/11/03 07:06:31;;;;;;;1.10;1.10;;;;;;;;;;5074622;28;20217;-81
2022/11/03 07:09:01;;;;;;;2.92;1.30;;;;;;;;;;5066220;28;20210;-80
2022/11/03 07:11:31;;;;;;;1.65;1.52;;;;;;;;;;5054831;28;20680;-81
2022/11/03 07:14:03;;;;;;;1.50;1.33;;;;;;;;;;5054166;28;20198;-80
2022/11/03 07:16:35;;;;;;;2.50;1.70;;;;;;;;;;5054992;28;20233;-79
2022/11/03 07:19:05;;;;;;;2.15;1.90;;;;;;;;;;5054111;28;20223;-79
2022/11/03 07:21:37;;;;;;;2.78;1.73;;;;;;;;;;5054312;28;20218;-79
2022/11/03 07:24:15;;;;;;;3.53;1.83;;;;;;;;;;5054384;28;20661;-79
2022/11/03 07:26:43;;;;;;;1.92;1.30;;;;;;;;;;5054084;28;20225;-79
2022/11/03 07:29:16;;;;;;;2.05;1.75;;;;;;;;;;5054137;28;20208;-80
2022/11/03 07:31:43;;;;;;;2.28;1.25;;;;;;;;;;5054385;28;20694;-80
2022/11/03 07:34:15;;;;;;;2.55;1.77;;;;;;;;;;5072363;28;20870;-80
2022/11/03 07:36:45;;;;;;;1.70;1.30;;;;;;;;;;5074423;28;20224;-80
2022/11/03 07:39:15;;;;;;;1.35;1.25;;;;;;;;;;5063115;28;20209;-79
2022/11/03 07:41:43;;;;;;;3.20;1.77;;;;;;;;;;5054257;28;20197;-80
2022/11/03 07:44:16;;;;;;;1.45;1.35;;;;;;;;;;5053691;28;20198;-78
2022/11/03 07:46:43;;;;;;;2.17;1.63;;;;;;;;;;5053961;28;20225;-79
2022/11/03 07:49:25;;;;;;;2.15;1.23;;;;;;;;;;5053533;28;20211;-80
2022/11/03 07:51:55;;;;;;;2.20;1.42;;;;;;;;;;5053953;28;20221;-80
2022/11/03 07:54:25;;;;;;;2.33;1.80;;;;;;;;;;5054059;28;20197;-78
2022/11/03 07:56:54;;;;;;;4.15;2.95;;;;;;;;;;5053567;28;20208;-79
2022/11/03 07:59:26;;;;;;;2.28;1.73;;;;;;;;;;5053611;28;20203;-80
2022/11/03 08:01:55;;;;;;;3.35;1.80;;;;;;;;;;5053780;28;20200;-79
2022/11/03 08:04:24;;;;;;;2.55;1.50;;;;;;;;;;5053607;28;20227;-80
2022/11/03 08:06:53;;;;;;;2.95;1.25;;;;;;;;;;5053264;28;20202;-80
2022/11/03 08:09:21;;;;;;;3.47;1.55;;;;;;;;;;5053107;28;20231;-80
2022/11/03 08:11:49;;;;;;;2.65;1.77;;;;;;;;;;5053595;28;20337;-80
2022/11/03 08:14:16;;;;;;;1.60;1.50;;;;;;;;;;5053556;28;20197;-80
2022/11/03 08:16:44;;;;;;;4.55;1.73;;;;;;;;;;5053385;28;20233;-79
2022/11/03 08:19:11;;;;;;;4.50;2.38;;;;;;;;;;5053164;28;20205;-79
2022/11/03 08:21:39;;;;;;;3.60;2.22;;;;;;;;;;5053503;28;20600;-80
2022/11/03 08:24:08;;;;;;;5.57;2.20;;;;;;;;;;5053191;28;20194;-81
2022/11/03 08:26:35;;;;;;;3.33;2.05;;;;;;;;;;5053489;28;20224;-80
2022/11/03 08:29:03;;;;;;;4.18;2.22;;;;;;;;;;5053481;28;20201;-80
2022/11/03 08:31:30;;;;;;;4.15;2.03;;;;;;;;;;5054111;28;20591;-81
2022/11/03 08:33:57;;;;;;;2.03;1.80;;;;;;;;;;5069778;28;21069;-80
2022/11/03 08:36:25;;;;;;;4.38;2.10;;;;;;;;;;5074072;28;20311;-80
2022/11/03 08:38:52;;;;;;;6.65;2.67;;;;;;;;;;5066208;28;20352;-80
2022/11/03 08:41:21;;;;;;;3.20;2.03;;;;;;;;;;5053972;28;20296;-81
2022/11/03 08:43:48;;;;;;;2.25;1.95;;;;;;;;;;5054603;28;20266;-81
2022/11/03 08:46:16;;;;;;;4.20;2.55;;;;;;;;;;5054626;28;20324;-81
2022/11/03 08:48:43;;;;;;;2.38;1.98;;;;;;;;;;5055531;28;20225;-81
2022/11/03 08:51:12;;;;;;;4.25;2.13;;;;;;;;;;5053825;28;20208;-81
2022/11/03 08:53:41;;;;;;;3.13;1.77;;;;;;;;;;5054742;28;20279;-81
2022/11/03 08:56:09;;;;;;;1.95;1.75;;;;;;;;;;5054117;28;20243;-80
2022/11/03 08:58:37;;;;;;;6.18;2.08;;;;;;;;;;5053953;28;20209;-81
2022/11/03 09:01:06;;;;;;;15.88;3.05;;;;;;;;;;5054473;28;20198;-82
2022/11/03 09:03:34;;;;;;;4.97;2.35;;;;;;;;;;5058307;28;20609;-81
2022/11/03 09:06:01;;;;;;;5.45;2.13;;;;;;;;;;5057908;28;20226;-82
2022/11/03 09:08:29;;;;;;;4.68;2.65;;;;;;;;;;5057800;28;20276;-79
2022/11/03 09:10:56;;;;;;;3.92;2.28;;;;;;;;;;5057571;28;20210;-83
2022/11/03 09:13:24;;;;;;;3.83;2.30;;;;;;;;;;5058674;28;20222;-82
2022/11/03 09:15:52;;;;;;;7.07;2.20;;;;;;;;;;5057857;28;20677;-81
2022/11/03 09:18:21;;;;;;;4.13;2.55;;;;;;;;;;5057272;28;20204;-81
2022/11/03 09:20:49;;;;;;;2.60;2.15;;;;;;;;;;5057204;28;20206;-81
2022/11/03 09:23:16;;;;;;;4.75;2.05;;;;;;;;;;5058069;28;20636;-80
2022/11/03 09:25:43;;;;;;;3.10;2.30;;;;;;;;;;5060319;28;20650;-81
2022/11/03 09:28:11;;;;;;;4.00;2.13;;;;;;;;;;5058933;28;20265;-79
2022/11/03 09:30:38;;;;;;;4.47;2.50;;;;;;;;;;5059877;28;20197;-81
2022/11/03 09:33:07;;;;;;;4.72;2.40;;;;;;;;;;5068212;28;20307;-80
2022/11/03 09:35:35;;;;;;;4.50;2.10;;;;;;;;;;5079523;28;20225;-81
2022/11/03 09:38:02;;;;;;;3.28;1.90;;;;;;;;;;5077224;28;20208;-80
2022/11/03 09:40:29;;;;;;;3.05;2.45;;;;;;;;;;5058330;28;20621;-79
2022/11/03 09:42:57;;;;;;;3.70;2.08;;;;;;;;;;5058635;28;20194;-81
2022/11/03 09:45:25;;;;;;;6.00;2.40;;;;;;;;;;5057026;28;20313;-80
2022/11/03 09:47:52;;;;;;;4.72;2.10;;;;;;;;;;5056871;28;20205;-80
2022/11/03 09:50:21;;;;;;;5.47;3.15;;;;;;;;;;5056596;28;20227;-77
2022/11/03 09:52:50;;;;;;;3.45;2.55;;;;;;;;;;5056168;28;20215;-83
2022/11/03 09:55:21;;;;;;;5.15;2.83;;;;;;;;;;5057943;28;20221;-79
2022/11/03 09:57:49;;;;;;;6.75;2.38;;;;;;;;;;5057905;28;20292;-82
2022/11/03 10:00:20;;;;;;;6.45;2.40;;;;;;;;;;5058679;28;20229;-81
2022/11/03 10:02:48;;;;;;;4.45;2.78;;;;;;;;;;5057897;28;20212;-81
2022/11/03 10:05:27;;;;;;;2.58;2.00;;;;;;;;;;5057348;28;20321;-81
2022/11/03 10:07:59;;;;;;;2.97;2.15;;;;;;;;;;5056992;28;20702;-82
2022/11/03 10:10:27;;;;;;;5.55;2.72;;;;;;;;;;5038581;28;20265;-81
2022/11/03 10:12:54;;;;;;;3.05;2.25;;;;;;;;;;5037295;28;20207;-81
2022/11/03 10:15:23;;;;;;;4.88;2.78;;;;;;;;;;5036536;28;20293;-81
2022/11/03 10:17:51;;;;;;;4.15;3.10;;;;;;;;;;5052712;28;20269;-81
2022/11/03 10:20:21;;;;;;;20.65;3.13;;;;;;;;;;5055954;28;20289;-80
2022/11/03 10:22:53;;;;;;;3.40;2.60;;;;;;;;;;5055560;28;20202;-81
2022/11/03 10:25:38;;;;;;;4.38;2.92;;;;;;;;;;5055222;28;20358;-79
2022/11/03 10:28:18;;;;;;;2.83;1.85;;;;;;;;;;5055141;28;20292;-79
2022/11/03 10:30:51;;;;;;;2.35;2.15;;;;;;;;;;5055947;28;20604;-82
2022/11/03 10:33:30;;;;;;;2.97;2.67;;;;;;;;;;5065301;28;20204;-81
2022/11/03 10:35:59;;;;;;;3.97;3.28;;;;;;;;;;5075394;28;20227;-81
2022/11/03 10:38:30;;;;;;;4.35;2.75;;;;;;;;;;5071055;28;20198;-79
2022/11/03 10:41:12;;;;;;;5.93;3.10;;;;;;;;;;5054566;28;20201;-78
2022/11/03 10:43:41;;;;;;;3.60;2.05;;;;;;;;;;5055770;28;20691;-79
2022/11/03 10:46:18;;;;;;;4.25;2.40;;;;;;;;;;5055892;28;20217;-79
2022/11/03 10:48:46;;;;;;;4.57;2.00;;;;;;;;;;5063848;28;20201;-82
2022/11/03 10:51:19;;;;;;;4.18;1.80;;;;;;;;;;5074925;28;20220;-80
2022/11/03 10:53:48;;;;;;;3.30;2.05;;;;;;;;;;5074588;28;20312;-80
2022/11/03 10:56:15;;;;;;;3.45;2.30;;;;;;;;;;5073582;28;20316;-79
2022/11/03 10:58:43;;;;;;;5.88;2.78;;;;;;;;;;5072515;28;20203;-81
2022/11/03 11:01:11;;;;;;;3.10;2.05;;;;;;;;;;5072455;28;20287;-80
2022/11/03 11:03:43;;;;;;;4.18;2.28;;;;;;;;;;5072722;28;20197;-79
2022/11/03 11:06:20;;;;;;;2.58;1.98;;;;;;;;;;5072931;28;20624;-80
2022/11/03 11:08:49;;;;;;;3.78;1.90;;;;;;;;;;5066127;28;20209;-79
2022/11/03 11:11:18;;;;;;;3.25;1.70;;;;;;;;;;5052828;28;20224;-80
2022/11/03 11:13:45;;;;;;;2.45;1.80;;;;;;;;;;5052816;28;20292;-80
2022/11/03 11:16:49;;;;;;;2.40;1.75;;;;;;;;;;5052207;28;20213;-80
2022/11/03 11:19:17;;;;;;;2.85;1.70;;;;;;;;;;5044134;28;20205;-80
2022/11/03 11:22:01;;;;;;;1.98;1.77;;;;;;;;;;5052846;28;20688;-80
2022/11/03 11:25:02;;;;;;;3.30;2.28;;;;;;;;;;5050529;28;20202;-82
2022/11/03 11:27:56;;;;;;;4.78;2.35;;;;;;;;;;5053501;28;20208;-82
2022/11/03 11:31:22;;;;;;;3.15;1.90;;;;;;;;;;5053501;28;20205;-82
2022/11/03 11:33:50;;;;;;;6.38;2.63;;;;;;;;;;5068582;28;20204;-81
2022/11/03 11:36:23;;;;;;;4.53;2.45;;;;;;;;;;5073678;28;20316;-82
2022/11/03 11:39:02;;;;;;;4.32;2.60;;;;;;;;;;5065602;28;20297;-81
2022/11/03 11:42:09;;;;;;;2.65;2.15;;;;;;;;;;5053868;28;20288;-81
2022/11/03 11:45:05;;;;;;;5.00;2.90;;;;;;;;;;5053065;28;20194;-82
2022/11/03 11:47:48;;;;;;;1.92;1.70;;;;;;;;;;5053279;28;20635;-81
2022/11/03 11:50:34;;;;;;;2.78;1.75;;;;;;;;;;5053695;28;20617;-82
2022/11/03 11:53:18;;;;;;;2.80;1.85;;;;;;;;;;5053675;28;20237;-81
2022/11/03 11:55:52;;;;;;;3.55;2.08;;;;;;;;;;5053708;28;20334;-82
2022/11/03 11:58:25;;;;;;;3.28;2.45;;;;;;;;;;5053258;28;20258;-82
2022/11/03 12:00:59;;;;;;;3.38;1.90;;;;;;;;;;5054737;28;20607;-82
2022/11/03 12:03:38;;;;;;;3.50;1.92;;;;;;;;;;5053938;28;20204;-82
2022/11/03 12:06:06;;;;;;;2.45;1.98;;;;;;;;;;5053544;28;20213;-81
2022/11/03 12:08:34;;;;;;;3.00;2.13;;;;;;;;;;5053736;28;20293;-82
2022/11/03 12:11:03;;;;;;;2.35;1.90;;;;;;;;;;5054003;28;20251;-81
2022/11/03 12:13:47;;;;;;;4.75;3.03;;;;;;;;;;5054919;28;20202;-81
2022/11/03 12:16:34;;;;;;;2.10;1.80;;;;;;;;;;5053727;28;20244;-82
2022/11/03 12:19:40;;;;;;;4.57;2.03;;;;;;;;;;5052991;28;20255;-81
2022/11/03 12:22:10;;;;;;;2.55;1.80;;;;;;;;;;5053617;28;20206;-82
2022/11/03 12:24:50;;;;;;;2.58;1.75;;;;;;;;;;5054842;28;20208;-82
2022/11/03 12:27:42;;;;;;;2.25;1.80;;;;;;;;;;5053839;28;20196;-83
2022/11/03 12:30:17;;;;;;;2.03;1.65;;;;;;;;;;5053984;28;20201;-82
2022/11/03 12:32:45;;;;;;;2.53;1.92;;;;;;;;;;5059665;28;20598;-82
2022/11/03 12:35:13;;;;;;;2.72;1.95;;;;;;;;;;5075702;28;20319;-82
2022/11/03 12:37:41;;;;;;;2.72;1.85;;;;;;;;;;5076550;28;20237;-82
2022/11/03 12:40:11;;;;;;;5.35;2.15;;;;;;;;;;5058440;28;20688;-82
2022/11/03 12:42:39;;;;;;;2.70;1.92;;;;;;;;;;5056340;28;20288;-81
2022/11/03 12:45:08;;;;;;;2.70;1.90;;;;;;;;;;5056234;28;20214;-80
2022/11/03 12:47:37;;;;;;;4.50;1.85;;;;;;;;;;5074449;28;20201;-81
2022/11/03 12:50:05;;;;;;;2.15;1.77;;;;;;;;;;5075880;28;20246;-82
2022/11/03 12:52:33;;;;;;;6.10;1.90;;;;;;;;;;5071426;28;20208;-81
2022/11/03 12:55:00;;;;;;;7.97;2.38;;;;;;;;;;5075285;28;20229;-81
2022/11/03 12:57:27;;;;;;;2.88;1.92;;;;;;;;;;5076331;28;20209;-81
2022/11/03 12:59:55;;;;;;;5.32;2.05;;;;;;;;;;5075894;28;20203;-81
2022/11/03 13:02:22;;;;;;;4.50;1.92;;;;;;;;;;5076271;28;20292;-81
2022/11/03 13:04:51;;;;;;;2.22;1.52;;;;;;;;;;5076110;28;20220;-81
2022/11/03 13:07:19;;;;;;;6.70;2.63;;;;;;;;;;5075894;28;20689;-81
2022/11/03 13:09:46;;;;;;;2.17;1.70;;;;;;;;;;5061092;28;20239;-81
2022/11/03 13:12:32;;;;;;;2.35;1.52;;;;;;;;;;5056189;28;20288;-81
2022/11/03 13:15:00;;;;;;;2.30;1.40;;;;;;;;;;5056077;28;20324;-81
2022/11/03 13:17:28;;;;;;;2.80;1.85;;;;;;;;;;5058647;28;20307;-82
2022/11/03 13:19:57;;;;;;;1.65;1.55;;;;;;;;;;5057778;28;20202;-82
2022/11/03 13:22:24;;;;;;;3.38;1.80;;;;;;;;;;5059338;28;20236;-82
2022/11/03 13:24:52;;;;;;;3.13;1.70;;;;;;;;;;5057644;28;20304;-81
2022/11/03 13:27:19;;;;;;;3.47;1.90;;;;;;;;;;5058277;28;20201;-82
2022/11/03 13:29:47;;;;;;;3.30;1.73;;;;;;;;;;5059356;28;20288;-82
2022/11/03 13:32:14;;;;;;;1.67;1.50;;;;;;;;;;5058669;28;20296;-81
2022/11/03 13:34:42;;;;;;;1.83;1.73;;;;;;;;;;5078018;28;20293;-81
2022/11/03 13:37:10;;;;;;;2.53;1.90;;;;;;;;;;5077949;28;20288;-81
2022/11/03 13:39:38;;;;;;;2.00;1.80;;;;;;;;;;5063804;28;20591;-81
2022/11/03 13:42:05;;;;;;;3.03;1.58;;;;;;;;;;5057160;28;20201;-81
2022/11/03 13:44:33;;;;;;;3.15;1.88;;;;;;;;;;5056250;28;20231;-81
2022/11/03 13:47:00;;;;;;;3.50;1.80;;;;;;;;;;5056771;28;20201;-82
2022/11/03 13:49:27;;;;;;;5.57;2.50;;;;;;;;;;5057227;28;20306;-82
2022/11/03 13:51:55;;;;;;;3.10;2.45;;;;;;;;;;5057205;28;20269;-81
2022/11/03 13:54:24;;;;;;;8.90;1.90;;;;;;;;;;5056387;28;20643;-81
2022/11/03 13:56:51;;;;;;;2.42;1.90;;;;;;;;;;5058011;28;20260;-81
2022/11/03 13:59:19;;;;;;;2.58;1.88;;;;;;;;;;5056176;28;20296;-81
2022/11/03 14:01:46;;;;;;;3.78;2.03;;;;;;;;;;5056577;28;20577;-81
2022/11/03 14:04:13;;;;;;;1.95;1.60;;;;;;;;;;5057571;28;20212;-81
2022/11/03 14:06:41;;;;;;;2.33;1.75;;;;;;;;;;5055730;28;20727;-81
2022/11/03 14:09:09;;;;;;;2.20;1.70;;;;;;;;;;5055264;28;20206;-81
2022/11/03 14:14:23;;;;;;;3.28;2.13;;;;;;;;;;5056173;28;20204;-81
2022/11/03 14:16:50;;;;;;;2.08;1.77;;;;;;;;;;5057445;28;20320;-83
2022/11/03 14:19:17;;;;;;;3.70;1.95;;;;;;;;;;5055801;28;20297;-80
2022/11/03 14:21:45;;;;;;;2.55;1.90;;;;;;;;;;5056557;28;20298;-81
2022/11/03 14:24:12;;;;;;;3.72;1.73;;;;;;;;;;5057444;28;20773;-82
2022/11/03 14:26:41;;;;;;;2.22;1.45;;;;;;;;;;5059208;28;20218;-81
2022/11/03 14:29:09;;;;;;;1.77;1.60;;;;;;;;;;5058269;28;20292;-82
2022/11/03 14:31:36;;;;;;;1.65;1.52;;;;;;;;;;5058346;28;20297;-81
2022/11/03 14:34:04;;;;;;;3.90;2.50;;;;;;;;;;5074381;28;20205;-81
2022/11/03 14:36:31;;;;;;;2.95;1.67;;;;;;;;;;5077541;28;20220;-81
2022/11/03 14:38:59;;;;;;;2.08;1.88;;;;;;;;;;5069526;28;20206;-81
2022/11/03 14:44:13;;;;;;;4.20;1.77;;;;;;;;;;5056070;28;20208;-81
2022/11/03 14:46:40;;;;;;;3.45;1.90;;;;;;;;;;5054639;28;20387;-81
2022/11/03 14:49:08;;;;;;;1.65;1.20;;;;;;;;;;5055381;28;20292;-81
2022/11/03 14:51:35;;;;;;;3.40;1.90;;;;;;;;;;5055148;28;20201;-80
2022/11/03 14:54:03;;;;;;;1.50;1.40;;;;;;;;;;5056428;28;20205;-81
2022/11/03 14:56:30;;;;;;;2.20;1.83;;;;;;;;;;5055054;28;20232;-80
2022/11/03 14:58:57;;;;;;;2.05;1.85;;;;;;;;;;5053722;28;20202;-82
2022/11/03 15:01:26;;;;;;;2.97;1.80;;;;;;;;;;5055858;28;20202;-80
2022/11/03 15:03:54;;;;;;;1.92;1.67;;;;;;;;;;5054389;28;20202;-82
2022/11/03 15:06:21;;;;;;;2.45;1.90;;;;;;;;;;5054347;28;20296;-80
2022/11/03 15:08:49;;;;;;;2.33;1.55;;;;;;;;;;5055052;28;20212;-80
2022/11/03 15:11:16;;;;;;;2.92;1.90;;;;;;;;;;5054557;28;20288;-81
2022/11/03 15:13:44;;;;;;;5.18;2.83;;;;;;;;;;5054666;28;20216;-80
2022/11/03 15:16:11;;;;;;;4.40;1.80;;;;;;;;;;5055116;28;20233;-80
2022/11/03 15:18:40;;;;;;;3.13;2.17;;;;;;;;;;5061893;28;20296;-80
2022/11/03 15:21:07;;;;;;;3.08;2.40;;;;;;;;;;5074771;28;20236;-80
2022/11/03 15:23:35;;;;;;;5.78;2.17;;;;;;;;;;5076037;28;20209;-81
2022/11/03 15:26:03;;;;;;;2.65;2.03;;;;;;;;;;5075055;28;20734;-79
2022/11/03 15:28:30;;;;;;;2.75;2.42;;;;;;;;;;5071372;28;20347;-80
2022/11/03 15:30:58;;;;;;;5.75;2.53;;;;;;;;;;5056799;28;20217;-81